Time,TemperatureF,DewpointF,PressureIn,WindDirection,WindDirectionDegrees,WindSpeedMPH,WindSpeedGustMPH,Humidity,HourlyPrecipIn,Conditions,Clouds,dailyrainin,SolarRadiationWatts/m^2,SoftwareType,DateUTC
2013-06-03 00:00:00,45.0,41.0,-100.00,SW,225,1.0,-999.0,85,-99.99,,,-99.99,0.000000,,2013-06-03 04:00:00,
2013-06-03 00:33:00,45.0,41.0,-100.00,SW,225,1.0,-999.0,85,-99.99,,,-99.99,0.000000,,2013-06-03 04:33:00,
2013-06-03 00:42:00,45.0,41.0,-100.00,SW,225,1.0,-999.0,85,-99.99,,,-99.99,0.000000,,2013-06-03 04:42:00,
2013-06-03 00:53:00,45.0,41.0,-100.00,SW,225,1.0,-999.0,85,-99.99,,,-99.99,0.000000,,2013-06-03 04:53:00,
2013-06-03 01:00:00,43.0,40.0,-100.00,SW,225,0.0,-999.0,89,-99.99,,,-99.99,0.000000,,2013-06-03 05:00:00,
2013-06-03 01:32:00,43.0,40.0,-100.00,SW,225,0.0,-999.0,89,-99.99,,,-99.99,0.000000,,2013-06-03 05:32:00,
2013-06-03 01:43:00,43.0,40.0,-100.00,SW,225,0.0,-999.0,89,-99.99,,,-99.99,0.000000,,2013-06-03 05:43:00,
2013-06-03 01:52:00,43.0,40.0,-100.00,SW,225,0.0,-999.0,89,-99.99,,,-99.99,0.000000,,2013-06-03 05:52:00,
2013-06-03 02:00:00,41.0,39.0,-100.00,SSE,157,1.0,-999.0,90,-99.99,,,-99.99,0.000000,,2013-06-03 06:00:00,
2013-06-03 02:32:00,41.0,39.0,-100.00,SSE,157,1.0,-999.0,90,-99.99,,,-99.99,0.000000,,2013-06-03 06:32:00,
2013-06-03 02:42:00,41.0,39.0,-100.00,SSE,157,1.0,-999.0,90,-99.99,,,-99.99,0.000000,,2013-06-03 06:42:00,
2013-06-03 02:52:00,41.0,39.0,-100.00,SSE,157,1.0,-999.0,90,-99.99,,,-99.99,0.000000,,2013-06-03 06:52:00,
2013-06-03 04:00:00,41.0,39.0,-100.00,South,180,1.0,-999.0,91,-99.99,,,-99.99,0.000000,,2013-06-03 08:00:00,
2013-06-03 04:32:00,41.0,39.0,-100.00,South,180,1.0,-999.0,91,-99.99,,,-99.99,0.000000,,2013-06-03 08:32:00,
2013-06-03 04:42:00,41.0,39.0,-100.00,South,180,1.0,-999.0,91,-99.99,,,-99.99,0.000000,,2013-06-03 08:42:00,
2013-06-03 04:52:00,41.0,39.0,-100.00,South,180,1.0,-999.0,91,-99.99,,,-99.99,0.000000,,2013-06-03 08:52:00,
2013-06-03 07:00:00,41.0,38.0,-100.00,WSW,247,0.0,-999.0,91,-99.99,,,-99.99,10.440000,,2013-06-03 11:00:00,
2013-06-03 07:32:00,41.0,38.0,-100.00,WSW,247,0.0,-999.0,91,-99.99,,,-99.99,10.440000,,2013-06-03 11:32:00,
2013-06-03 07:42:00,41.0,38.0,-100.00,WSW,247,0.0,-999.0,91,-99.99,,,-99.99,10.440000,,2013-06-03 11:42:00,
2013-06-03 07:52:00,41.0,38.0,-100.00,WSW,247,0.0,-999.0,91,-99.99,,,-99.99,10.440000,,2013-06-03 11:52:00,
2013-06-03 09:00:00,50.0,41.0,-100.00,West,270,2.0,-999.0,70,-99.99,,,-99.99,285.359985,,2013-06-03 13:00:00,
2013-06-03 09:33:00,50.0,41.0,-100.00,West,270,2.0,-999.0,70,-99.99,,,-99.99,285.359985,,2013-06-03 13:33:00,
2013-06-03 09:43:00,50.0,41.0,-100.00,West,270,2.0,-999.0,70,-99.99,,,-99.99,285.359985,,2013-06-03 13:43:00,
2013-06-03 09:53:00,50.0,41.0,-100.00,West,270,2.0,-999.0,70,-99.99,,,-99.99,285.359985,,2013-06-03 13:53:00,
2013-06-03 10:00:00,54.0,40.0,-100.00,NW,315,3.0,-999.0,58,-99.99,,,-99.99,429.200012,,2013-06-03 14:00:00,
2013-06-03 10:33:00,54.0,40.0,-100.00,NW,315,3.0,-999.0,58,-99.99,,,-99.99,429.200012,,2013-06-03 14:33:00,
2013-06-03 10:42:00,54.0,40.0,-100.00,NW,315,3.0,-999.0,58,-99.99,,,-99.99,429.200012,,2013-06-03 14:42:00,
2013-06-03 10:52:00,54.0,40.0,-100.00,NW,315,3.0,-999.0,58,-99.99,,,-99.99,429.200012,,2013-06-03 14:52:00,
2013-06-03 11:00:00,56.0,39.0,-100.00,North,0,2.0,-999.0,52,-99.99,,,-99.99,570.719971,,2013-06-03 15:00:00,
2013-06-03 11:33:00,56.0,39.0,-100.00,North,0,2.0,-999.0,52,-99.99,,,-99.99,570.719971,,2013-06-03 15:33:00,
2013-06-03 11:43:00,56.0,39.0,-100.00,North,0,2.0,-999.0,52,-99.99,,,-99.99,570.719971,,2013-06-03 15:43:00,
2013-06-03 11:53:00,56.0,39.0,-100.00,North,0,2.0,-999.0,52,-99.99,,,-99.99,570.719971,,2013-06-03 15:53:00,
2013-06-03 12:00:00,58.0,40.0,-100.00,SSW,202,3.0,-999.0,50,-99.99,,,-99.99,677.440002,,2013-06-03 16:00:00,
2013-06-03 12:33:00,58.0,40.0,-100.00,SSW,202,3.0,-999.0,50,-99.99,,,-99.99,677.440002,,2013-06-03 16:33:00,
2013-06-03 12:42:00,58.0,40.0,-100.00,SSW,202,3.0,-999.0,50,-99.99,,,-99.99,677.440002,,2013-06-03 16:42:00,
2013-06-03 12:53:00,58.0,40.0,-100.00,SSW,202,3.0,-999.0,50,-99.99,,,-99.99,677.440002,,2013-06-03 16:53:00,
2013-06-03 14:00:00,60.0,43.0,-100.00,SSW,202,6.0,-999.0,54,-99.99,,,-99.99,773.719971,,2013-06-03 18:00:00,
2013-06-03 14:32:00,60.0,43.0,-100.00,SSW,202,6.0,-999.0,54,-99.99,,,-99.99,773.719971,,2013-06-03 18:32:00,
2013-06-03 14:43:00,60.0,43.0,-100.00,SSW,202,6.0,-999.0,54,-99.99,,,-99.99,773.719971,,2013-06-03 18:43:00,
2013-06-03 14:53:00,60.0,43.0,-100.00,SSW,202,6.0,-999.0,54,-99.99,,,-99.99,773.719971,,2013-06-03 18:53:00,
2013-06-03 15:00:00,60.0,43.0,-100.00,South,180,7.0,-999.0,53,-99.99,,,-99.99,748.200012,,2013-06-03 19:00:00,
2013-06-03 15:33:00,60.0,43.0,-100.00,South,180,7.0,-999.0,53,-99.99,,,-99.99,748.200012,,2013-06-03 19:33:00,
2013-06-03 15:42:00,60.0,43.0,-100.00,South,180,7.0,-999.0,53,-99.99,,,-99.99,748.200012,,2013-06-03 19:42:00,
2013-06-03 15:53:00,60.0,43.0,-100.00,South,180,7.0,-999.0,53,-99.99,,,-99.99,748.200012,,2013-06-03 19:53:00,
2013-06-03 16:00:00,61.0,43.0,-100.00,South,180,7.0,-999.0,51,-99.99,,,-99.99,693.679993,,2013-06-03 20:00:00,
2013-06-03 16:33:00,61.0,43.0,-100.00,South,180,7.0,-999.0,51,-99.99,,,-99.99,693.679993,,2013-06-03 20:33:00,
2013-06-03 16:43:00,61.0,43.0,-100.00,South,180,7.0,-999.0,51,-99.99,,,-99.99,693.679993,,2013-06-03 20:43:00,
2013-06-03 16:52:00,61.0,43.0,-100.00,South,180,7.0,-999.0,51,-99.99,,,-99.99,693.679993,,2013-06-03 20:52:00,
2013-06-03 17:00:00,61.0,41.0,-100.00,South,180,7.0,-999.0,48,-99.99,,,-99.99,600.880005,,2013-06-03 21:00:00,
2013-06-03 17:33:00,61.0,41.0,-100.00,South,180,7.0,-999.0,48,-99.99,,,-99.99,600.880005,,2013-06-03 21:33:00,
2013-06-03 17:43:00,61.0,41.0,-100.00,South,180,7.0,-999.0,48,-99.99,,,-99.99,600.880005,,2013-06-03 21:43:00,
2013-06-03 17:53:00,61.0,41.0,-100.00,South,180,7.0,-999.0,48,-99.99,,,-99.99,600.880005,,2013-06-03 21:53:00,
2013-06-03 18:00:00,62.0,38.0,-100.00,SSW,202,6.0,-999.0,42,-99.99,,,-99.99,481.399994,,2013-06-03 22:00:00,
2013-06-03 18:33:00,62.0,38.0,-100.00,SSW,202,6.0,-999.0,42,-99.99,,,-99.99,481.399994,,2013-06-03 22:33:00,
2013-06-03 18:42:00,62.0,38.0,-100.00,SSW,202,6.0,-999.0,42,-99.99,,,-99.99,481.399994,,2013-06-03 22:42:00,
2013-06-03 18:53:00,62.0,38.0,-100.00,SSW,202,6.0,-999.0,42,-99.99,,,-99.99,481.399994,,2013-06-03 22:53:00,
2013-06-03 19:00:00,61.0,35.0,-100.00,SSW,202,5.0,-999.0,37,-99.99,,,-99.99,307.399994,,2013-06-03 23:00:00,
2013-06-03 19:32:00,61.0,35.0,-100.00,SSW,202,5.0,-999.0,37,-99.99,,,-99.99,307.399994,,2013-06-03 23:32:00,
2013-06-03 19:42:00,61.0,35.0,-100.00,SSW,202,5.0,-999.0,37,-99.99,,,-99.99,307.399994,,2013-06-03 23:42:00,
2013-06-03 19:52:00,61.0,35.0,-100.00,SSW,202,5.0,-999.0,37,-99.99,,,-99.99,307.399994,,2013-06-03 23:52:00,
2013-06-03 20:00:00,62.0,35.0,-100.00,SW,225,3.0,-999.0,36,-99.99,,,-99.99,215.759995,,2013-06-04 00:00:00,
2013-06-03 20:32:00,62.0,35.0,-100.00,SW,225,3.0,-999.0,36,-99.99,,,-99.99,215.759995,,2013-06-04 00:32:00,
2013-06-03 20:42:00,62.0,35.0,-100.00,SW,225,3.0,-999.0,36,-99.99,,,-99.99,215.759995,,2013-06-04 00:42:00,
2013-06-03 20:52:00,62.0,35.0,-100.00,SW,225,3.0,-999.0,36,-99.99,,,-99.99,215.759995,,2013-06-04 00:52:00,
2013-06-03 22:00:00,54.0,42.0,-100.00,SE,135,0.0,-999.0,65,-99.99,,,-99.99,2.320000,,2013-06-04 02:00:00,
2013-06-03 22:32:00,54.0,42.0,-100.00,SE,135,0.0,-999.0,65,-99.99,,,-99.99,2.320000,,2013-06-04 02:32:00,
2013-06-03 22:42:00,54.0,42.0,-100.00,SE,135,0.0,-999.0,65,-99.99,,,-99.99,2.320000,,2013-06-04 02:42:00,
2013-06-03 22:52:00,54.0,42.0,-100.00,SE,135,0.0,-999.0,65,-99.99,,,-99.99,2.320000,,2013-06-04 02:52:00,
2013-06-03 23:00:00,50.0,42.0,-100.00,SE,135,1.0,-999.0,74,-99.99,,,-99.99,0.000000,,2013-06-04 03:00:00,
2013-06-03 23:33:00,50.0,42.0,-100.00,SE,135,1.0,-999.0,74,-99.99,,,-99.99,0.000000,,2013-06-04 03:33:00,
2013-06-03 23:43:00,50.0,42.0,-100.00,SE,135,1.0,-999.0,74,-99.99,,,-99.99,0.000000,,2013-06-04 03:43:00,
2013-06-03 23:54:00,50.0,42.0,-100.00,SE,135,1.0,-999.0,74,-99.99,,,-99.99,0.000000,,2013-06-04 03:54:00,